createdAt,value
2019-05-05T00:02:20.999Z,90.00
2019-05-05T00:04:51.406Z,89.70
2019-05-05T00:07:21.741Z,90.30
2019-05-05T00:09:50.356Z,89.40
2019-05-05T00:12:25.876Z,89.80
2019-05-05T00:14:56.073Z,89.20
2019-05-05T00:17:26.137Z,87.80
2019-05-05T00:19:55.025Z,85.10
2019-05-05T00:22:24.534Z,84.70
2019-05-05T00:24:54.595Z,85.10
2019-05-05T00:27:25.265Z,84.90
2019-05-05T00:29:54.741Z,84.60
2019-05-05T00:32:24.482Z,84.10
2019-05-05T00:34:55.050Z,82.70
2019-05-05T00:37:25.481Z,82.40
2019-05-05T00:39:54.314Z,81.20
2019-05-05T00:42:24.731Z,80.50
2019-05-05T00:44:54.963Z,81.60
2019-05-05T00:47:34.443Z,81.60
2019-05-05T00:50:05.276Z,81.20
2019-05-05T00:52:35.161Z,81.60
2019-05-05T00:55:06.080Z,81.20
2019-05-05T00:57:34.831Z,81.60
2019-05-05T01:00:20.249Z,83.70
2019-05-05T01:02:50.368Z,84.60
2019-05-05T01:05:25.303Z,83.00
2019-05-05T01:07:54.749Z,81.50
2019-05-05T01:10:24.800Z,83.20
2019-05-05T01:12:54.452Z,80.00
2019-05-05T01:15:25.309Z,82.80
2019-05-05T01:17:55.223Z,84.40
2019-05-05T01:20:24.989Z,82.90
2019-05-05T01:22:55.287Z,84.40
2019-05-05T01:25:25.356Z,85.40
2019-05-05T01:27:54.570Z,85.80
2019-05-05T01:30:26.668Z,85.10
2019-05-05T01:33:11.869Z,85.60
2019-05-05T01:35:40.632Z,86.10
2019-05-05T01:38:14.240Z,85.10
2019-05-05T01:40:50.220Z,85.50
2019-05-05T01:43:18.649Z,85.20
2019-05-05T01:45:47.080Z,83.70
2019-05-05T01:48:15.664Z,83.00
2019-05-05T01:50:45.273Z,82.40
2019-05-05T01:53:15.228Z,83.40
2019-05-05T01:55:45.214Z,83.40
2019-05-05T01:58:15.369Z,84.40
2019-05-05T02:00:45.190Z,84.10
2019-05-05T02:03:14.741Z,85.50
2019-05-05T02:05:45.177Z,85.30
2019-05-05T02:08:15.336Z,84.60
2019-05-05T02:10:45.347Z,84.90
2019-05-05T02:13:15.963Z,84.90
2019-05-05T02:15:44.627Z,86.00
2019-05-05T02:18:14.916Z,86.80
2019-05-05T02:20:54.210Z,86.30
2019-05-05T02:23:24.510Z,85.80
2019-05-05T02:25:55.196Z,86.40
2019-05-05T02:28:25.188Z,86.80
2019-05-05T02:31:07.625Z,86.40
2019-05-05T02:33:36.147Z,85.20
2019-05-05T02:36:05.734Z,84.20
2019-05-05T02:38:35.511Z,84.10
2019-05-05T02:41:05.264Z,83.50
2019-05-05T02:43:36.210Z,83.20
2019-05-05T02:46:17.909Z,84.40
2019-05-05T02:48:50.926Z,85.40
2019-05-05T02:51:20.781Z,87.30
2019-05-05T02:53:53.624Z,86.90
2019-05-05T02:56:27.275Z,87.70
2019-05-05T02:58:59.837Z,87.50
2019-05-05T03:01:34.245Z,85.30
2019-05-05T03:04:03.825Z,85.60
2019-05-05T03:06:34.276Z,86.30
2019-05-05T03:09:04.848Z,86.60
2019-05-05T03:11:35.503Z,86.30
2019-05-05T03:14:06.407Z,84.80
2019-05-05T03:16:37.918Z,84.70
2019-05-05T03:19:08.472Z,83.80
2019-05-05T03:21:37.340Z,83.40
2019-05-05T03:24:07.078Z,83.40
2019-05-05T03:26:36.049Z,81.90
2019-05-05T03:29:06.755Z,83.00
2019-05-05T03:31:35.539Z,82.30
2019-05-05T03:34:05.972Z,81.70
2019-05-05T03:36:35.417Z,81.10
2019-05-05T03:39:05.653Z,79.70
2019-05-05T03:41:39.236Z,81.60
2019-05-05T03:44:14.111Z,84.40
2019-05-05T03:46:43.835Z,85.20
2019-05-05T03:49:14.001Z,86.30
2019-05-05T03:51:43.892Z,85.90
2019-05-05T03:54:14.652Z,84.60
2019-05-05T03:56:44.169Z,84.60
2019-05-05T03:59:14.104Z,83.70
2019-05-05T04:01:59.734Z,84.90
2019-05-05T04:04:29.868Z,85.70
2019-05-05T04:06:59.160Z,86.70
2019-05-05T04:09:27.670Z,87.30
2019-05-05T04:11:57.113Z,87.10
2019-05-05T04:14:25.717Z,85.60
2019-05-05T04:17:07.912Z,84.50
2019-05-05T04:19:38.129Z,82.90
2019-05-05T04:22:06.560Z,83.50
2019-05-05T04:24:35.018Z,83.70
2019-05-05T04:27:04.016Z,82.60
2019-05-05T04:29:34.485Z,81.20
2019-05-05T04:32:04.600Z,82.10
2019-05-05T04:34:34.744Z,81.10
2019-05-05T04:37:04.129Z,80.10
2019-05-05T04:39:34.375Z,78.70
2019-05-05T04:42:04.829Z,77.20
2019-05-05T04:44:34.652Z,76.40
2019-05-05T04:47:05.064Z,76.40
2019-05-05T04:49:44.601Z,73.10
2019-05-05T04:52:14.816Z,71.00
2019-05-05T04:54:47.876Z,75.80
2019-05-05T04:57:16.357Z,73.80
2019-05-05T04:59:45.252Z,75.20
2019-05-05T05:02:30.728Z,78.80
2019-05-05T05:05:04.078Z,77.90
2019-05-05T05:07:34.483Z,76.90
2019-05-05T05:10:04.582Z,76.90
2019-05-05T05:12:34.163Z,76.90
2019-05-05T05:15:04.311Z,75.80
2019-05-05T05:17:34.820Z,75.40
2019-05-05T05:20:05.287Z,72.40
2019-05-05T05:22:33.744Z,72.60
2019-05-05T05:25:04.304Z,72.40
2019-05-05T05:27:33.593Z,67.00
2019-05-05T05:30:02.194Z,63.60
2019-05-05T05:32:30.710Z,54.80
2019-05-05T05:34:59.140Z,51.30
2019-05-05T05:37:27.657Z,42.10
2019-05-05T05:40:00.377Z,42.30
2019-05-05T05:42:28.826Z,43.80
2019-05-05T05:45:01.616Z,40.60
2019-05-05T05:47:48.301Z,36.00
2019-05-05T05:50:21.104Z,15.40
2019-05-05T05:52:49.544Z,23.10
2019-05-05T05:55:18.080Z,13.90
2019-05-05T05:57:46.521Z,19.90
2019-05-05T06:00:15.207Z,15.90
2019-05-05T06:02:44.079Z,1.00
2019-05-05T06:05:14.599Z,6.30
2019-05-05T06:07:44.297Z,7.90
2019-05-05T06:10:22.207Z,11.10
2019-05-05T06:12:44.913Z,12.40
2019-05-05T06:15:14.219Z,2.30
2019-05-05T06:17:43.484Z,1.70
2019-05-05T06:20:14.386Z,1.00
2019-05-05T06:22:44.541Z,1.00
2019-05-05T06:25:16.006Z,1.00
2019-05-05T06:27:44.551Z,1.00
2019-05-05T06:30:13.863Z,1.00
2019-05-05T06:32:43.709Z,1.00
2019-05-05T06:35:13.866Z,1.00
2019-05-05T06:37:55.002Z,1.00
2019-05-05T06:40:26.070Z,1.00
2019-05-05T06:42:59.104Z,1.00
2019-05-05T06:45:29.169Z,1.00
2019-05-05T06:47:57.643Z,1.00
2019-05-05T06:50:26.161Z,1.00
2019-05-05T06:52:54.597Z,1.00
2019-05-05T06:55:26.100Z,1.00
2019-05-05T06:57:54.585Z,1.00
2019-05-05T07:00:24.169Z,1.00
2019-05-05T07:02:54.086Z,99.90
2019-05-05T07:05:23.501Z,1.00
2019-05-05T07:07:53.751Z,1.00
2019-05-05T07:10:24.049Z,99.90
2019-05-05T07:12:54.373Z,99.90
2019-05-05T07:15:23.739Z,1.00
2019-05-05T07:17:53.589Z,1.00
2019-05-05T07:20:24.015Z,99.90
2019-05-05T07:22:59.784Z,99.90
2019-05-05T07:25:24.221Z,99.90
2019-05-05T07:27:54.734Z,99.90
2019-05-05T07:30:24.311Z,99.90
2019-05-05T07:32:53.783Z,1.00
2019-05-05T07:35:36.062Z,1.00
2019-05-05T07:38:04.652Z,1.00
2019-05-05T07:40:34.593Z,99.90
2019-05-05T07:43:04.520Z,99.90
2019-05-05T07:45:34.336Z,1.00
2019-05-05T07:48:04.780Z,99.90
2019-05-05T07:50:35.665Z,70.70
2019-05-05T07:53:12.205Z,99.90
2019-05-05T07:55:34.351Z,99.90
2019-05-05T07:58:04.330Z,1.00
2019-05-05T08:00:34.291Z,18.50
2019-05-05T08:03:03.761Z,99.90
2019-05-05T08:05:33.527Z,1.00
2019-05-05T08:08:04.460Z,99.90
2019-05-05T08:10:34.221Z,99.90
2019-05-05T08:13:04.481Z,1.00
2019-05-05T08:15:34.335Z,3.40
2019-05-05T08:18:07.594Z,1.00
2019-05-05T08:20:47.570Z,99.90
2019-05-05T08:23:30.107Z,1.00
2019-05-05T08:25:58.082Z,1.00
2019-05-05T08:28:28.166Z,1.00
2019-05-05T08:31:04.261Z,1.00
2019-05-05T08:33:33.632Z,1.00
2019-05-05T08:36:04.327Z,99.90
2019-05-05T08:38:34.586Z,58.00
2019-05-05T08:41:04.506Z,99.90
2019-05-05T08:43:34.784Z,99.90
2019-05-05T08:46:04.919Z,1.00
2019-05-05T08:48:34.166Z,99.90
2019-05-05T08:51:04.729Z,99.90
2019-05-05T08:53:42.513Z,19.60
2019-05-05T08:56:04.099Z,41.90
2019-05-05T08:58:34.419Z,1.00
2019-05-05T09:01:04.392Z,1.00
2019-05-05T09:03:33.686Z,1.00
2019-05-05T09:06:04.494Z,99.90
2019-05-05T09:08:34.559Z,99.90
2019-05-05T09:11:04.740Z,99.90
2019-05-05T09:13:33.998Z,99.90
2019-05-05T09:16:03.757Z,99.90
2019-05-05T09:18:33.947Z,99.90
2019-05-05T09:21:04.415Z,42.70
2019-05-05T09:23:34.751Z,45.40
2019-05-05T09:26:07.897Z,5.50
2019-05-05T09:28:50.100Z,1.00
2019-05-05T09:31:18.544Z,56.20
2019-05-05T09:33:46.977Z,72.40
2019-05-05T09:36:15.432Z,12.30
2019-05-05T09:38:45.064Z,95.10
2019-05-05T09:41:14.341Z,99.90
2019-05-05T09:43:44.613Z,6.10
2019-05-05T09:46:14.382Z,43.10
2019-05-05T09:48:44.036Z,43.30
2019-05-05T09:51:13.637Z,1.00
2019-05-05T09:53:42.145Z,1.00
2019-05-05T09:56:10.567Z,1.00
2019-05-05T09:58:38.985Z,1.00
2019-05-05T10:01:07.661Z,1.00
2019-05-05T10:03:36.086Z,1.00
2019-05-05T10:06:05.170Z,1.00
2019-05-05T10:08:34.190Z,1.00
2019-05-05T10:11:04.096Z,1.00
2019-05-05T10:13:33.647Z,1.00
2019-05-05T10:16:03.995Z,1.00
2019-05-05T10:18:35.532Z,1.00
2019-05-05T10:21:04.653Z,1.00
2019-05-05T10:23:34.545Z,1.00
2019-05-05T10:26:04.612Z,1.00
2019-05-05T10:28:34.045Z,1.00
2019-05-05T10:31:04.649Z,1.00
2019-05-05T10:33:32.833Z,1.00
2019-05-05T10:36:01.376Z,1.00
2019-05-05T10:38:29.964Z,1.00
2019-05-05T10:41:01.355Z,1.00
2019-05-05T10:43:29.837Z,1.00
2019-05-05T10:45:58.296Z,1.00
2019-05-05T10:48:26.745Z,1.00
2019-05-05T10:50:55.208Z,1.00
2019-05-05T10:53:23.726Z,1.00
2019-05-05T10:55:55.083Z,1.00
2019-05-05T10:58:24.392Z,1.00
2019-05-05T11:00:54.739Z,1.00
2019-05-05T11:03:23.746Z,1.00
2019-05-05T11:05:53.798Z,1.00
2019-05-05T11:08:24.124Z,1.00
2019-05-05T11:10:52.737Z,1.00
2019-05-05T11:13:21.189Z,1.00
2019-05-05T11:15:49.691Z,1.00
2019-05-05T11:18:18.182Z,1.00
2019-05-05T11:20:46.740Z,1.00
2019-05-05T11:23:15.406Z,1.00
2019-05-05T11:25:44.490Z,1.00
2019-05-05T11:28:13.314Z,1.00
2019-05-05T11:30:44.856Z,1.00
2019-05-05T11:33:20.712Z,1.00
2019-05-05T11:35:54.014Z,1.00
2019-05-05T11:38:24.553Z,1.00
2019-05-05T11:40:54.674Z,1.00
2019-05-05T11:43:24.668Z,1.00
2019-05-05T11:45:54.484Z,1.00
2019-05-05T11:48:24.001Z,1.00
2019-05-05T11:50:54.076Z,1.00
2019-05-05T11:53:24.909Z,1.00
2019-05-05T11:55:54.901Z,1.00
2019-05-05T11:58:24.789Z,1.00
2019-05-05T12:00:54.501Z,1.00
2019-05-05T12:03:23.374Z,1.00
2019-05-05T12:05:51.947Z,1.00
2019-05-05T12:08:20.373Z,1.00
2019-05-05T12:10:54.175Z,1.00
2019-05-05T12:13:22.996Z,1.00
2019-05-05T12:15:53.808Z,1.00
2019-05-05T12:18:23.730Z,1.00
2019-05-05T12:20:54.253Z,1.00
2019-05-05T12:23:22.477Z,1.00
2019-05-05T12:25:56.655Z,1.00
2019-05-05T12:28:30.325Z,1.00
2019-05-05T12:31:09.258Z,1.00
2019-05-05T12:33:37.680Z,1.00
2019-05-05T12:36:06.207Z,1.00
2019-05-05T12:38:34.899Z,1.00
2019-05-05T12:41:04.422Z,1.00
2019-05-05T12:43:34.051Z,1.00
2019-05-05T12:46:19.283Z,1.00
2019-05-05T12:48:49.373Z,1.00
2019-05-05T12:51:17.932Z,1.00
2019-05-05T12:53:46.424Z,1.00
2019-05-05T12:56:15.037Z,1.00
2019-05-05T12:58:43.987Z,1.00
2019-05-05T13:01:16.937Z,1.00
2019-05-05T13:03:45.361Z,1.00
2019-05-05T13:06:14.624Z,1.00
2019-05-05T13:08:44.522Z,1.00
2019-05-05T13:11:13.489Z,1.00
2019-05-05T13:13:43.993Z,1.00
2019-05-05T13:16:13.648Z,1.00
2019-05-05T13:18:42.564Z,1.00
2019-05-05T13:21:18.573Z,1.00
2019-05-05T13:23:57.932Z,1.00
2019-05-05T13:26:31.032Z,1.00
2019-05-05T13:28:59.453Z,1.00
2019-05-05T13:31:27.889Z,1.00
2019-05-05T13:33:56.313Z,1.00
2019-05-05T13:36:24.763Z,1.00
2019-05-05T13:38:54.552Z,1.00
2019-05-05T13:41:23.256Z,1.00
2019-05-05T13:43:53.956Z,1.00
2019-05-05T13:46:24.733Z,99.90
2019-05-05T13:48:53.940Z,1.00
2019-05-05T13:51:23.984Z,1.00
2019-05-05T13:53:53.962Z,1.00
2019-05-05T13:56:24.491Z,1.00
2019-05-05T13:58:53.058Z,1.00
2019-05-05T14:01:23.554Z,1.00
2019-05-05T14:03:53.554Z,1.00
2019-05-05T14:06:24.042Z,1.00
2019-05-05T14:08:53.936Z,1.00
2019-05-05T14:11:24.451Z,1.00
2019-05-05T14:13:52.442Z,1.00
2019-05-05T14:16:20.938Z,99.90
2019-05-05T14:18:49.452Z,1.00
2019-05-05T14:21:17.897Z,99.90
2019-05-05T14:24:03.806Z,1.00
2019-05-05T14:26:35.161Z,1.00
2019-05-05T14:29:04.337Z,99.90
2019-05-05T14:31:34.579Z,99.90
2019-05-05T14:34:04.661Z,1.00
2019-05-05T14:36:40.319Z,99.90
2019-05-05T14:39:10.815Z,1.00
2019-05-05T14:41:39.368Z,99.90
2019-05-05T14:44:07.825Z,1.00
2019-05-05T14:46:36.296Z,99.90
2019-05-05T14:49:05.839Z,99.90
2019-05-05T14:51:34.497Z,99.90
2019-05-05T14:54:04.571Z,99.90
2019-05-05T14:56:36.544Z,99.90
2019-05-05T14:59:03.766Z,99.90
2019-05-05T15:01:34.438Z,99.90
2019-05-05T15:04:04.301Z,99.90
2019-05-05T15:06:34.581Z,99.90
2019-05-05T15:09:07.402Z,99.90
2019-05-05T15:11:40.666Z,99.90
2019-05-05T15:14:09.110Z,99.90
2019-05-05T15:16:37.536Z,99.90
2019-05-05T15:19:05.980Z,99.90
2019-05-05T15:21:34.485Z,99.90
2019-05-05T15:24:02.961Z,99.90
2019-05-05T15:26:31.389Z,99.90
2019-05-05T15:29:01.764Z,99.90
2019-05-05T15:31:30.113Z,99.90
2019-05-05T15:33:58.607Z,99.90
2019-05-05T15:36:28.361Z,99.90
2019-05-05T15:38:57.221Z,99.90
2019-05-05T15:41:25.724Z,99.90
2019-05-05T15:43:54.443Z,99.90
2019-05-05T15:46:24.408Z,99.90
2019-05-05T15:48:54.540Z,99.90
2019-05-05T15:51:23.729Z,99.90
2019-05-05T15:53:54.104Z,99.90
2019-05-05T15:56:24.356Z,99.90
2019-05-05T15:58:52.700Z,99.90
2019-05-05T16:01:21.145Z,99.90
2019-05-05T16:03:49.740Z,99.90
2019-05-05T16:06:18.233Z,99.90
2019-05-05T16:08:46.684Z,99.90
2019-05-05T16:11:16.084Z,99.90
2019-05-05T16:13:44.517Z,99.90
2019-05-05T16:16:14.743Z,99.90
2019-05-05T16:18:48.446Z,99.90
2019-05-05T16:21:31.608Z,99.90
2019-05-05T16:24:04.137Z,99.90
2019-05-05T16:26:32.565Z,99.90
2019-05-05T16:29:01.012Z,99.90
2019-05-05T16:31:29.525Z,99.90
2019-05-05T16:33:58.047Z,99.90
2019-05-05T16:36:26.581Z,99.90
2019-05-05T16:38:55.036Z,99.90
2019-05-05T16:41:23.811Z,99.90
2019-05-05T16:43:53.446Z,99.90
2019-05-05T16:46:23.877Z,99.90
2019-05-05T16:48:54.067Z,99.90
2019-05-05T16:51:24.398Z,99.90
2019-05-05T16:53:53.884Z,99.90
2019-05-05T16:56:24.236Z,99.90
2019-05-05T16:58:52.816Z,99.90
2019-05-05T17:01:21.245Z,99.90
2019-05-05T17:03:49.697Z,99.90
2019-05-05T17:06:18.222Z,99.90
2019-05-05T17:08:46.658Z,99.90
2019-05-05T17:11:15.306Z,99.90
2019-05-05T17:13:45.520Z,99.90
2019-05-05T17:16:15.585Z,99.90
2019-05-05T17:18:45.388Z,99.90
2019-05-05T17:21:15.448Z,99.90
2019-05-05T17:23:43.966Z,99.90
2019-05-05T17:26:14.316Z,99.90
2019-05-05T17:28:44.231Z,99.90
2019-05-05T17:31:12.871Z,99.90
2019-05-05T17:33:41.302Z,99.90
2019-05-05T17:36:09.800Z,99.90
2019-05-05T17:38:38.267Z,99.90
2019-05-05T17:41:11.169Z,99.90
2019-05-05T17:43:54.185Z,99.90
2019-05-05T17:46:30.046Z,99.90
2019-05-05T17:49:17.961Z,99.90
2019-05-05T17:51:50.794Z,99.90
2019-05-05T17:54:20.874Z,99.90
2019-05-05T17:56:52.195Z,99.90
2019-05-05T17:59:19.492Z,99.90
2019-05-05T18:01:47.922Z,99.90
2019-05-05T18:04:16.374Z,99.90
2019-05-05T18:06:46.437Z,99.90
2019-05-05T18:09:19.261Z,99.90
2019-05-05T18:11:53.600Z,99.90
2019-05-05T18:14:29.816Z,99.90
2019-05-05T18:16:58.353Z,99.90
2019-05-05T18:19:26.820Z,99.90
2019-05-05T18:21:55.261Z,99.90
2019-05-05T18:24:24.298Z,99.90
2019-05-05T18:26:53.688Z,99.90
2019-05-05T18:29:24.139Z,99.90
2019-05-05T18:31:53.530Z,99.90
2019-05-05T18:34:23.577Z,99.90
2019-05-05T18:36:54.170Z,1.00
2019-05-05T18:39:24.536Z,99.90
2019-05-05T18:42:00.380Z,1.00
2019-05-05T18:44:30.553Z,99.90
2019-05-05T18:47:12.857Z,1.00
2019-05-05T18:49:40.645Z,1.00
2019-05-05T18:52:09.210Z,1.00
2019-05-05T18:54:37.693Z,1.00
2019-05-05T18:57:07.445Z,1.00
2019-05-05T18:59:35.969Z,1.00
2019-05-05T19:02:14.328Z,1.00
2019-05-05T19:04:50.500Z,99.90
2019-05-05T19:07:29.524Z,1.00
2019-05-05T19:09:57.984Z,93.50
2019-05-05T19:12:26.522Z,57.70
2019-05-05T19:17:23.696Z,99.90
2019-05-05T19:19:54.945Z,1.00
2019-05-05T19:22:23.593Z,1.00
2019-05-05T19:24:52.021Z,1.00
2019-05-05T19:27:20.450Z,1.00
2019-05-05T19:29:48.902Z,99.90
2019-05-05T19:32:17.559Z,36.80
2019-05-05T19:34:46.093Z,99.90
2019-05-05T19:37:14.572Z,99.90
2019-05-05T19:39:43.051Z,99.90
2019-05-05T19:42:11.492Z,1.00
2019-05-05T19:44:39.921Z,99.90
2019-05-05T19:47:15.566Z,68.60
2019-05-05T19:49:45.642Z,99.90
2019-05-05T19:52:14.266Z,99.90
2019-05-05T19:54:46.860Z,99.90
2019-05-05T19:57:14.423Z,99.90
2019-05-05T19:59:44.732Z,99.90
2019-05-05T20:02:13.423Z,1.00
2019-05-05T20:04:43.906Z,99.90
2019-05-05T20:07:13.935Z,99.90
2019-05-05T20:09:43.619Z,99.90
2019-05-05T20:12:14.604Z,99.90
2019-05-05T20:14:43.612Z,99.90
2019-05-05T20:17:16.792Z,99.90
2019-05-05T20:19:45.788Z,99.90
2019-05-05T20:22:14.731Z,1.00
2019-05-05T20:24:44.322Z,1.00
2019-05-05T20:27:13.960Z,1.00
2019-05-05T20:29:42.596Z,1.00
2019-05-05T20:32:11.021Z,1.00
2019-05-05T20:34:50.288Z,1.00
2019-05-05T20:37:20.423Z,1.00
2019-05-05T20:39:48.859Z,1.00
2019-05-05T20:42:17.276Z,1.00
2019-05-05T20:44:45.740Z,1.00
2019-05-05T20:47:14.169Z,1.00
2019-05-05T20:49:44.449Z,1.00
2019-05-05T20:52:14.163Z,1.00
2019-05-05T20:54:44.081Z,1.00
2019-05-05T20:57:12.799Z,1.00
2019-05-05T20:59:41.220Z,1.00
2019-05-05T21:02:09.641Z,1.00
2019-05-05T21:04:38.108Z,1.00
2019-05-05T21:07:06.537Z,1.00
2019-05-05T21:09:34.983Z,1.00
2019-05-05T21:12:04.701Z,1.00
2019-05-05T21:14:37.108Z,1.00
2019-05-05T21:17:04.144Z,1.00
2019-05-05T21:19:34.643Z,1.00
2019-05-05T21:22:10.325Z,1.00
2019-05-05T21:24:38.740Z,1.00
2019-05-05T21:27:07.240Z,1.00
2019-05-05T21:29:41.379Z,1.00
2019-05-05T21:32:06.219Z,1.00
2019-05-05T21:34:34.680Z,1.00
2019-05-05T21:37:04.468Z,3.80
2019-05-05T21:39:34.986Z,6.40
2019-05-05T21:42:04.658Z,3.50
2019-05-05T21:44:34.383Z,1.00
2019-05-05T21:47:03.069Z,12.20
2019-05-05T21:49:33.634Z,6.30
2019-05-05T21:52:09.281Z,1.00
2019-05-05T21:54:48.664Z,5.90
2019-05-05T21:57:31.000Z,5.50
2019-05-05T21:59:59.428Z,6.60
2019-05-05T22:02:28.020Z,5.20
2019-05-05T22:04:56.496Z,3.70
2019-05-05T22:07:24.920Z,14.00
2019-05-05T22:09:54.455Z,14.20
2019-05-05T22:12:24.354Z,16.20
2019-05-05T22:14:55.048Z,18.40
2019-05-05T22:17:23.201Z,25.20
2019-05-05T22:22:26.377Z,31.00
2019-05-05T22:24:54.801Z,33.60
2019-05-05T22:27:23.757Z,31.30
2019-05-05T22:29:55.331Z,29.80
2019-05-05T22:32:24.828Z,30.30
2019-05-05T22:34:52.834Z,28.60
2019-05-05T22:37:23.458Z,30.00
2019-05-05T22:39:51.487Z,30.10
2019-05-05T22:42:19.933Z,29.30
2019-05-05T22:44:48.369Z,43.60
2019-05-05T22:47:16.912Z,46.10
2019-05-05T22:49:45.432Z,41.10
2019-05-05T22:52:14.460Z,38.40
2019-05-05T22:54:44.393Z,35.90
2019-05-05T22:57:14.045Z,34.90
2019-05-05T22:59:42.711Z,34.00
2019-05-05T23:02:11.280Z,31.20
2019-05-05T23:04:57.632Z,27.90
2019-05-05T23:07:27.704Z,28.90
2019-05-05T23:09:56.136Z,33.20
2019-05-05T23:12:24.684Z,31.80
2019-05-05T23:14:54.538Z,33.40
2019-05-05T23:17:27.922Z,32.30
2019-05-05T23:20:00.436Z,30.90
2019-05-05T23:22:39.596Z,29.50
2019-05-05T23:25:15.601Z,31.50
2019-05-05T23:27:47.684Z,33.50
2019-05-05T23:30:17.568Z,36.40
2019-05-05T23:32:47.373Z,37.60
2019-05-05T23:35:16.640Z,52.00
2019-05-05T23:37:46.115Z,59.00
2019-05-05T23:40:25.500Z,58.00
2019-05-05T23:42:54.264Z,59.30
2019-05-05T23:45:24.878Z,56.90
2019-05-05T23:47:54.506Z,56.10
2019-05-05T23:50:23.744Z,54.50
2019-05-05T23:52:54.331Z,52.60
2019-05-05T23:55:23.991Z,50.50
2019-05-05T23:57:54.642Z,52.20
